createdAt,value
2023-04-14T00:00:02.835Z,4.82
2023-04-14T00:01:03.359Z,4.87
2023-04-14T00:02:04.082Z,4.79
2023-04-14T00:03:04.723Z,4.83
2023-04-14T00:04:05.392Z,4.79
2023-04-14T00:05:05.911Z,4.84
2023-04-14T00:06:06.631Z,4.78
2023-04-14T00:07:06.780Z,4.74
2023-04-14T00:08:07.556Z,4.66
2023-04-14T00:09:08.468Z,4.61
2023-04-14T00:10:09.182Z,4.63
2023-04-14T00:11:10.690Z,4.7
2023-04-14T00:12:10.707Z,4.56
2023-04-14T00:13:11.440Z,4.63
2023-04-14T00:14:12.191Z,4.6
2023-04-14T00:15:12.900Z,4.52
2023-04-14T00:16:13.675Z,4.53
2023-04-14T00:17:14.395Z,4.56
2023-04-14T00:18:15.409Z,4.57
2023-04-14T00:19:16.032Z,4.53
2023-04-14T00:20:16.765Z,4.5
2023-04-14T00:21:17.083Z,4.57
2023-04-14T00:22:17.602Z,4.52
2023-04-14T00:23:18.291Z,4.5
2023-04-14T00:24:19.218Z,4.5
2023-04-14T00:25:19.961Z,4.46
2023-04-14T00:26:20.694Z,4.43
2023-04-14T00:27:21.427Z,4.34
2023-04-14T00:28:22.113Z,4.3
2023-04-14T00:29:22.928Z,4.38
2023-04-14T00:30:23.012Z,4.4
2023-04-14T00:31:23.461Z,4.32
2023-04-14T00:32:23.771Z,4.28
2023-04-14T00:33:24.377Z,4.4
2023-04-14T00:34:24.658Z,4.34
2023-04-14T00:35:25.153Z,4.3
2023-04-14T00:36:25.832Z,4.27
2023-04-14T00:37:26.580Z,4.34
2023-04-14T00:38:27.070Z,4.39
2023-04-14T00:39:28.477Z,4.31
2023-04-14T00:40:29.184Z,4.3
2023-04-14T00:41:29.891Z,4.46
2023-04-14T00:42:30.395Z,4.36
2023-04-14T00:43:31.086Z,4.3
2023-04-14T00:44:32.067Z,4.43
2023-04-14T00:45:32.361Z,4.31
2023-04-14T00:46:33.226Z,4.34
2023-04-14T00:47:33.348Z,4.36
2023-04-14T00:48:34.286Z,4.27
2023-04-14T00:49:34.649Z,4.36
2023-04-14T00:50:35.635Z,4.24
2023-04-14T00:51:35.923Z,4.38
2023-04-14T00:52:36.499Z,4.31
2023-04-14T00:53:37.217Z,4.38
2023-04-14T00:54:37.716Z,4.3
2023-04-14T00:55:38.209Z,4.42
2023-04-14T00:56:39.515Z,4.4
2023-04-14T00:57:40.226Z,4.36
2023-04-14T00:58:40.994Z,4.43
2023-04-14T00:59:41.438Z,4.42
2023-04-14T01:00:42.395Z,4.49
2023-04-14T01:01:43.507Z,4.39
2023-04-14T01:02:44.164Z,4.32
2023-04-14T01:03:44.484Z,4.42
2023-04-14T01:04:58.869Z,4.46
2023-04-14T01:06:45.196Z,4.36
2023-04-14T01:07:45.957Z,4.4
2023-04-14T01:08:46.361Z,4.36
2023-04-14T01:09:46.926Z,4.34
2023-04-14T01:10:47.838Z,4.38
2023-04-14T01:11:47.776Z,4.31
2023-04-14T01:12:48.251Z,4.3
2023-04-14T01:13:48.932Z,4.38
2023-04-14T01:14:49.198Z,4.3
2023-04-14T01:15:49.552Z,4.28
2023-04-14T01:16:50.612Z,4.31
2023-04-14T01:17:51.628Z,4.31
2023-04-14T01:18:51.545Z,4.32
2023-04-14T01:19:51.708Z,4.31
2023-04-14T01:20:52.390Z,4.28
2023-04-14T01:21:52.886Z,4.28
2023-04-14T01:22:53.623Z,4.28
2023-04-14T01:23:53.548Z,4.27
2023-04-14T01:24:54.021Z,4.27
2023-04-14T01:25:54.318Z,4.25
2023-04-14T01:26:55.020Z,4.16
2023-04-14T01:27:55.347Z,4.12
2023-04-14T01:28:56.108Z,4.14
2023-04-14T01:29:57.053Z,4.2
2023-04-14T01:30:57.368Z,4.21
2023-04-14T01:31:57.519Z,4.21
2023-04-14T01:32:58.377Z,4.25
2023-04-14T01:33:58.593Z,4.24
2023-04-14T01:34:59.282Z,4.24
2023-04-14T01:36:00.197Z,4.22
2023-04-14T01:37:01.081Z,4.2
2023-04-14T01:38:01.316Z,4.21
2023-04-14T01:39:02.383Z,4.18
2023-04-14T01:41:02.773Z,4.16
2023-04-14T01:42:03.452Z,4.13
2023-04-14T01:43:03.738Z,4.18
2023-04-14T01:44:04.492Z,4.12
2023-04-14T01:45:05.684Z,4.14
2023-04-14T01:46:06.031Z,4.21
2023-04-14T01:47:05.812Z,4.14
2023-04-14T01:48:06.944Z,4.2
2023-04-14T01:49:07.584Z,4.21
2023-04-14T01:51:07.658Z,4.14
2023-04-14T01:52:08.379Z,4.14
2023-04-14T01:53:08.895Z,4.2
2023-04-14T01:54:09.664Z,4.22
2023-04-14T01:55:10.416Z,4.18
2023-04-14T01:56:10.683Z,4.1
2023-04-14T01:57:10.749Z,4.14
2023-04-14T01:58:11.459Z,4.07
2023-04-14T01:59:11.400Z,4.16
2023-04-14T02:00:12.066Z,4.21
2023-04-14T02:01:12.637Z,4.21
2023-04-14T02:02:13.956Z,4.21
2023-04-14T02:03:14.242Z,4.25
2023-04-14T02:04:14.759Z,4.18
2023-04-14T02:05:14.503Z,4.24
2023-04-14T02:06:15.428Z,4.18
2023-04-14T02:07:15.132Z,4.21
2023-04-14T02:08:16.046Z,4.18
2023-04-14T02:09:16.765Z,4.2
2023-04-14T02:10:16.806Z,4.14
2023-04-14T02:11:17.713Z,4.22
2023-04-14T02:12:18.789Z,4.21
2023-04-14T02:13:19.259Z,4.2
2023-04-14T02:14:19.944Z,4.22
2023-04-14T02:15:20.461Z,4.24
2023-04-14T02:16:21.092Z,4.21
2023-04-14T02:17:22.017Z,4.18
2023-04-14T02:18:22.092Z,4.24
2023-04-14T02:19:23.249Z,4.22
2023-04-14T02:20:23.861Z,4.14
2023-04-14T02:21:24.579Z,4.21
2023-04-14T02:22:25.081Z,4.2
2023-04-14T02:23:25.613Z,4.16
2023-04-14T02:24:26.115Z,4.14
2023-04-14T02:25:27.019Z,4.12
2023-04-14T02:26:27.758Z,4.1
2023-04-14T02:27:27.675Z,4.09
2023-04-14T02:28:28.192Z,4.12
2023-04-14T02:29:28.300Z,4.06
2023-04-14T02:30:28.650Z,4.1
2023-04-14T02:31:29.456Z,4
2023-04-14T02:32:30.067Z,4.02
2023-04-14T02:33:30.703Z,3.95
2023-04-14T02:34:31.644Z,3.86
2023-04-14T02:35:31.434Z,3.91
2023-04-14T02:36:32.463Z,3.92
2023-04-14T02:37:33.249Z,3.89
2023-04-14T02:38:33.783Z,3.84
2023-04-14T02:39:34.274Z,3.88
2023-04-14T02:40:34.634Z,3.86
2023-04-14T02:41:35.139Z,3.76
2023-04-14T02:42:35.640Z,3.78
2023-04-14T02:43:36.339Z,3.7
2023-04-14T02:44:37.017Z,3.74
2023-04-14T02:45:37.808Z,3.68
2023-04-14T02:46:38.918Z,3.66
2023-04-14T02:47:39.511Z,3.74
2023-04-14T02:48:40.159Z,3.67
2023-04-14T02:49:40.625Z,3.73
2023-04-14T02:50:41.035Z,3.74
2023-04-14T02:51:41.764Z,3.88
2023-04-14T02:52:41.665Z,3.85
2023-04-14T02:53:42.323Z,3.95
2023-04-14T02:54:43.054Z,3.92
2023-04-14T02:55:43.582Z,3.91
2023-04-14T02:56:43.686Z,3.84
2023-04-14T02:57:44.369Z,3.86
2023-04-14T02:58:45.080Z,3.85
2023-04-14T02:59:45.390Z,3.71
2023-04-14T03:00:46.419Z,3.7
2023-04-14T03:01:47.412Z,3.68
2023-04-14T03:02:47.922Z,3.68
2023-04-14T03:03:48.500Z,3.67
2023-04-14T03:04:49.209Z,3.67
2023-04-14T03:05:49.723Z,3.67
2023-04-14T03:06:50.243Z,3.7
2023-04-14T03:07:50.549Z,3.58
2023-04-14T03:08:51.502Z,3.58
2023-04-14T03:09:51.925Z,3.63
2023-04-14T03:10:52.728Z,3.63
2023-04-14T03:11:53.441Z,3.49
2023-04-14T03:12:54.376Z,3.49
2023-04-14T03:13:54.884Z,3.5
2023-04-14T03:14:55.588Z,3.52
2023-04-14T03:15:56.717Z,3.52
2023-04-14T03:16:59.237Z,3.55
2023-04-14T03:18:58.762Z,3.59
2023-04-14T03:19:59.616Z,3.64
2023-04-14T03:20:59.799Z,3.67
2023-04-14T03:22:00.551Z,3.5
2023-04-14T03:23:01.371Z,3.59
2023-04-14T03:24:01.727Z,3.63
2023-04-14T03:25:02.436Z,3.61
2023-04-14T03:26:03.573Z,3.59
2023-04-14T03:27:04.077Z,3.59
2023-04-14T03:28:04.556Z,3.63
2023-04-14T03:29:05.796Z,3.67
2023-04-14T03:30:06.086Z,3.59
2023-04-14T03:31:06.930Z,3.71
2023-04-14T03:32:07.581Z,3.71
2023-04-14T03:33:08.301Z,3.78
2023-04-14T03:34:08.588Z,3.76
2023-04-14T03:35:09.345Z,3.7
2023-04-14T03:36:10.060Z,3.81
2023-04-14T03:37:10.885Z,3.74
2023-04-14T03:38:11.403Z,3.78
2023-04-14T03:39:12.386Z,3.78
2023-04-14T03:40:13.095Z,3.84
2023-04-14T03:41:13.194Z,3.85
2023-04-14T03:42:14.804Z,3.81
2023-04-14T03:43:15.500Z,3.88
2023-04-14T03:44:15.647Z,3.85
2023-04-14T03:45:16.489Z,3.84
2023-04-14T03:46:17.933Z,3.77
2023-04-14T03:47:17.761Z,3.84
2023-04-14T03:48:17.462Z,3.84
2023-04-14T03:49:17.968Z,3.89
2023-04-14T03:50:18.902Z,3.92
2023-04-14T03:51:19.292Z,3.92
2023-04-14T03:52:19.642Z,3.91
2023-04-14T03:53:20.150Z,3.99
2023-04-14T03:54:20.288Z,3.95
2023-04-14T03:55:21.176Z,3.94
2023-04-14T03:56:21.939Z,3.92
2023-04-14T03:57:22.013Z,3.91
2023-04-14T03:58:22.494Z,3.91
2023-04-14T03:59:22.991Z,3.96
2023-04-14T04:00:23.477Z,3.94
2023-04-14T04:01:23.915Z,3.95
2023-04-14T04:02:24.974Z,3.95
2023-04-14T04:03:25.956Z,3.92
2023-04-14T04:04:25.674Z,4
2023-04-14T04:05:25.395Z,3.94
2023-04-14T04:06:25.687Z,3.89
2023-04-14T04:07:26.624Z,3.89
2023-04-14T04:08:27.347Z,3.95
2023-04-14T04:09:27.647Z,3.96
2023-04-14T04:10:28.345Z,3.88
2023-04-14T04:11:28.443Z,3.92
2023-04-14T04:12:29.344Z,3.88
2023-04-14T04:13:30.401Z,3.89
2023-04-14T04:14:31.312Z,3.88
2023-04-14T04:15:31.855Z,3.96
2023-04-14T04:16:32.070Z,3.95
2023-04-14T04:17:33.116Z,3.86
2023-04-14T04:18:33.733Z,3.91
2023-04-14T04:19:34.446Z,3.92
2023-04-14T04:20:35.281Z,3.81
2023-04-14T04:21:34.923Z,3.96
2023-04-14T04:22:35.839Z,3.92
2023-04-14T04:23:36.719Z,3.94
2023-04-14T04:24:37.290Z,3.91
2023-04-14T04:25:38.016Z,3.89
2023-04-14T04:26:40.771Z,3.86
2023-04-14T04:28:39.957Z,3.89
2023-04-14T04:29:40.447Z,3.88
2023-04-14T04:30:41.188Z,3.96
2023-04-14T04:31:41.988Z,4.03
2023-04-14T04:32:42.459Z,3.99
2023-04-14T04:33:43.266Z,3.91
2023-04-14T04:34:43.926Z,3.89
2023-04-14T04:35:44.656Z,3.91
2023-04-14T04:36:45.333Z,3.92
2023-04-14T04:37:46.064Z,3.89
2023-04-14T04:38:46.544Z,3.92
2023-04-14T04:39:47.465Z,3.77
2023-04-14T04:40:48.168Z,3.85
2023-04-14T04:41:48.601Z,3.91
2023-04-14T04:42:49.305Z,3.89
2023-04-14T04:43:50.006Z,3.81
2023-04-14T04:44:51.121Z,3.81
2023-04-14T04:45:51.998Z,3.84
2023-04-14T04:46:51.886Z,3.99
2023-04-14T04:47:52.944Z,3.91
2023-04-14T04:48:53.618Z,3.84
2023-04-14T04:49:53.914Z,3.94
2023-04-14T04:50:54.614Z,3.77
2023-04-14T04:51:54.798Z,3.81
2023-04-14T04:52:55.749Z,3.82
2023-04-14T04:53:56.259Z,3.89
2023-04-14T04:54:57.448Z,4
2023-04-14T04:55:58.345Z,3.86
2023-04-14T04:56:58.677Z,3.81
2023-04-14T04:57:59.384Z,3.86
2023-04-14T04:59:00.455Z,3.71
2023-04-14T05:00:00.228Z,3.71
2023-04-14T05:01:00.706Z,3.74
2023-04-14T05:02:02.318Z,3.71
2023-04-14T05:03:02.578Z,3.68
2023-04-14T05:04:02.727Z,3.52
2023-04-14T05:05:02.844Z,3.5
2023-04-14T05:06:03.388Z,3.45
2023-04-14T05:07:04.097Z,3.41
2023-04-14T05:08:04.640Z,3.5
2023-04-14T05:09:05.936Z,3.33
2023-04-14T05:10:05.893Z,3.37
2023-04-14T05:11:06.611Z,3.33
2023-04-14T05:12:06.567Z,3.33
2023-04-14T05:13:07.135Z,3.41
2023-04-14T05:14:07.501Z,3.45
2023-04-14T05:15:07.984Z,3.37
2023-04-14T05:16:08.658Z,3.24
2023-04-14T05:17:08.627Z,3.4
2023-04-14T05:18:09.614Z,3.41
2023-04-14T05:19:09.907Z,3.33
2023-04-14T05:20:10.866Z,3.27
2023-04-14T05:21:11.573Z,3.4
2023-04-14T05:22:12.663Z,3.43
2023-04-14T05:23:13.004Z,3.41
2023-04-14T05:24:13.279Z,3.4
2023-04-14T05:25:13.990Z,3.31
2023-04-14T05:26:51.562Z,3.48
2023-04-14T05:28:25.660Z,3.45
2023-04-14T05:29:26.339Z,3.46
2023-04-14T05:30:27.085Z,3.55
2023-04-14T05:31:27.928Z,3.55
2023-04-14T05:32:29.710Z,3.56
2023-04-14T05:33:29.411Z,3.63
2023-04-14T05:34:30.232Z,3.61
2023-04-14T05:35:31.218Z,3.67
2023-04-14T05:36:31.769Z,3.61
2023-04-14T05:37:35.653Z,3.74
2023-04-14T05:38:33.012Z,3.73
2023-04-14T05:39:33.521Z,3.7
2023-04-14T05:40:34.448Z,3.74
2023-04-14T05:41:34.997Z,3.71
2023-04-14T05:42:36.369Z,3.74
2023-04-14T05:43:36.934Z,3.86
2023-04-14T05:44:36.755Z,3.81
2023-04-14T05:45:37.301Z,3.81
2023-04-14T05:46:37.874Z,3.86
2023-04-14T05:47:37.997Z,3.89
2023-04-14T05:48:38.024Z,3.94
2023-04-14T05:49:38.322Z,3.99
2023-04-14T05:50:39.109Z,3.99
2023-04-14T05:51:40.175Z,4
2023-04-14T05:52:40.671Z,4.09
2023-04-14T05:53:41.402Z,4.09
2023-04-14T05:54:43.765Z,4.06
2023-04-14T05:55:42.208Z,4.12
2023-04-14T05:56:42.699Z,4.2
2023-04-14T05:57:43.183Z,4.16
2023-04-14T05:58:43.892Z,4.21
2023-04-14T05:59:43.810Z,4.21
2023-04-14T06:00:44.648Z,4.12
2023-04-14T06:01:45.556Z,4.18
2023-04-14T06:02:46.762Z,4.2
2023-04-14T06:03:47.339Z,4.21
2023-04-14T06:04:47.111Z,4.3
2023-04-14T06:05:47.327Z,4.27
2023-04-14T06:06:48.059Z,4.28
2023-04-14T06:07:48.169Z,4.34
2023-04-14T06:08:48.926Z,4.24
2023-04-14T06:09:48.905Z,4.27
2023-04-14T06:10:49.774Z,4.4
2023-04-14T06:11:49.875Z,4.34
2023-04-14T06:12:50.308Z,4.38
2023-04-14T06:13:50.827Z,4.38
2023-04-14T06:14:51.440Z,4.5
2023-04-14T06:15:52.121Z,4.49
2023-04-14T06:16:53.247Z,4.48
2023-04-14T06:17:53.504Z,4.52
2023-04-14T06:18:54.078Z,4.48
2023-04-14T06:19:55.067Z,4.52
2023-04-14T06:20:55.595Z,4.48
2023-04-14T06:21:56.335Z,4.45
2023-04-14T06:22:57.135Z,4.52
2023-04-14T06:23:58.051Z,4.45
2023-04-14T06:24:58.542Z,4.53
2023-04-14T06:25:59.254Z,4.53
2023-04-14T06:26:59.939Z,4.48
2023-04-14T06:28:00.853Z,4.64
2023-04-14T06:29:01.689Z,4.63
2023-04-14T06:30:01.780Z,4.57
2023-04-14T06:31:02.543Z,4.66
2023-04-14T06:32:03.230Z,4.67
2023-04-14T06:33:04.331Z,4.64
2023-04-14T06:34:04.330Z,4.67
2023-04-14T06:35:04.439Z,4.7
2023-04-14T06:36:04.797Z,4.7
2023-04-14T06:37:05.287Z,4.66
2023-04-14T06:38:05.976Z,4.68
2023-04-14T06:39:07.403Z,4.7
2023-04-14T06:41:07.672Z,4.79
2023-04-14T06:42:08.366Z,4.82
2023-04-14T06:43:08.691Z,4.92
2023-04-14T06:44:09.594Z,4.76
2023-04-14T06:45:09.936Z,4.76
2023-04-14T06:46:10.238Z,4.89
2023-04-14T06:47:10.928Z,4.83
2023-04-14T06:48:11.910Z,4.83
2023-04-14T06:49:12.449Z,4.94
2023-04-14T06:50:13.358Z,4.82
2023-04-14T06:51:14.273Z,4.79
2023-04-14T06:52:15.067Z,4.92
2023-04-14T06:53:15.620Z,5.02
2023-04-14T06:54:16.149Z,5
2023-04-14T06:55:16.666Z,5.02
2023-04-14T06:56:17.115Z,5.02
2023-04-14T06:57:18.056Z,5
2023-04-14T06:58:19.330Z,5.05
2023-04-14T06:59:19.971Z,5.07
2023-04-14T07:00:20.685Z,5.04
2023-04-14T07:01:21.476Z,5.02
2023-04-14T07:02:22.512Z,5.12
2023-04-14T07:03:23.256Z,5.13
2023-04-14T07:04:23.423Z,5.19
2023-04-14T07:05:24.333Z,5.2
2023-04-14T07:06:24.277Z,5.31
2023-04-14T07:07:25.245Z,5.2
2023-04-14T07:08:25.763Z,5.25
2023-04-14T07:09:26.662Z,5.31
2023-04-14T07:10:27.572Z,5.26
2023-04-14T07:11:27.877Z,5.28
2023-04-14T07:12:28.636Z,5.33
2023-04-14T07:13:28.662Z,5.23
2023-04-14T07:14:29.396Z,5.34
2023-04-14T07:15:30.417Z,5.31
2023-04-14T07:16:30.725Z,5.33
2023-04-14T07:17:31.399Z,5.4
2023-04-14T07:18:32.362Z,5.41
2023-04-14T07:19:33.285Z,5.41
2023-04-14T07:20:33.229Z,5.37
2023-04-14T07:21:33.717Z,5.38
2023-04-14T07:22:34.069Z,5.46
2023-04-14T07:23:34.506Z,5.38
2023-04-14T07:24:35.258Z,5.43
2023-04-14T07:25:35.792Z,5.4
2023-04-14T07:26:36.304Z,5.38
2023-04-14T07:27:36.808Z,5.38
2023-04-14T07:28:37.891Z,5.46
2023-04-14T07:29:38.616Z,5.44
2023-04-14T07:30:39.306Z,5.44
2023-04-14T07:31:40.376Z,5.44
2023-04-14T07:32:40.443Z,5.4
2023-04-14T07:33:41.043Z,5.49
2023-04-14T07:34:42.148Z,5.38
2023-04-14T07:36:03.220Z,5.49
2023-04-14T07:36:44.062Z,5.43
2023-04-14T07:37:44.902Z,5.44
2023-04-14T07:38:45.629Z,5.43
2023-04-14T07:39:46.375Z,5.43
2023-04-14T07:40:47.074Z,5.41
2023-04-14T07:41:47.797Z,5.41
2023-04-14T07:42:48.303Z,5.38
2023-04-14T07:43:48.894Z,5.51
2023-04-14T07:44:49.303Z,5.47
2023-04-14T07:45:49.528Z,5.41
2023-04-14T07:46:50.860Z,5.49
2023-04-14T07:47:50.781Z,5.56
2023-04-14T07:48:50.538Z,5.43
2023-04-14T07:49:51.035Z,5.49
2023-04-14T07:50:51.641Z,5.49
2023-04-14T07:51:52.337Z,5.58
2023-04-14T07:52:53.086Z,5.59
2023-04-14T07:53:53.579Z,5.58
2023-04-14T07:54:53.822Z,5.51
2023-04-14T07:55:53.560Z,5.61
2023-04-14T07:56:54.152Z,5.62
2023-04-14T07:57:55.239Z,5.58
2023-04-14T07:58:55.926Z,5.69
2023-04-14T07:59:56.796Z,5.7
2023-04-14T08:00:57.365Z,5.7
2023-04-14T08:01:58.599Z,5.72
2023-04-14T08:02:58.711Z,5.7
2023-04-14T08:03:59.834Z,5.77
2023-04-14T08:04:59.502Z,5.77
2023-04-14T08:06:00.503Z,5.8
2023-04-14T08:07:00.615Z,5.84
2023-04-14T08:08:00.747Z,5.81
2023-04-14T08:09:02.306Z,5.84
2023-04-14T08:10:02.382Z,5.74
2023-04-14T08:11:03.294Z,5.77
2023-04-14T08:12:03.921Z,5.76
2023-04-14T08:13:06.396Z,5.73
2023-04-14T08:15:05.243Z,5.7
2023-04-14T08:16:06.233Z,5.7
2023-04-14T08:17:06.318Z,5.7
2023-04-14T08:18:07.230Z,5.69
2023-04-14T08:19:08.371Z,5.64
2023-04-14T08:20:07.934Z,5.59
2023-04-14T08:21:09.070Z,5.56
2023-04-14T08:22:09.195Z,5.46
2023-04-14T08:23:09.975Z,5.55
2023-04-14T08:24:10.678Z,5.54
2023-04-14T08:25:11.199Z,5.47
2023-04-14T08:26:11.891Z,5.47
2023-04-14T08:27:12.609Z,5.47
2023-04-14T08:28:13.422Z,5.47
2023-04-14T08:29:14.144Z,5.44
2023-04-14T08:30:16.739Z,5.36
2023-04-14T08:32:16.661Z,5.41
2023-04-14T08:33:17.124Z,5.38
2023-04-14T08:34:28.926Z,5.37
2023-04-14T08:36:00.556Z,5.37
2023-04-14T08:37:43.412Z,5.4
2023-04-14T08:38:44.125Z,5.46
2023-04-14T08:39:44.631Z,5.43
2023-04-14T08:40:45.583Z,5.4
2023-04-14T08:41:46.061Z,5.44
2023-04-14T08:42:46.592Z,5.47
2023-04-14T08:43:47.128Z,5.44
2023-04-14T08:44:47.937Z,5.51
2023-04-14T08:45:48.721Z,5.44
2023-04-14T08:46:49.475Z,5.52
2023-04-14T08:47:50.431Z,5.58
2023-04-14T08:48:50.351Z,5.55
2023-04-14T08:49:50.360Z,5.59
2023-04-14T08:50:50.880Z,5.64
2023-04-14T08:51:51.605Z,5.54
2023-04-14T08:52:52.478Z,5.59
2023-04-14T08:53:53.237Z,5.43
2023-04-14T08:54:53.925Z,5.56
2023-04-14T08:55:58.453Z,5.52
2023-04-14T08:56:55.364Z,5.55
2023-04-14T08:57:55.921Z,5.52
2023-04-14T08:58:56.834Z,5.62
2023-04-14T08:59:57.677Z,5.62
2023-04-14T09:00:58.538Z,5.73
2023-04-14T09:01:59.802Z,5.7
2023-04-14T09:03:00.310Z,5.7
2023-04-14T09:04:02.080Z,5.77
2023-04-14T09:06:02.181Z,5.8
2023-04-14T09:07:02.500Z,5.73
2023-04-14T09:08:02.998Z,5.79
2023-04-14T09:09:03.772Z,5.83
2023-04-14T09:10:04.338Z,5.92
2023-04-14T09:11:05.087Z,5.9
2023-04-14T09:12:05.805Z,5.88
2023-04-14T09:13:06.319Z,5.88
2023-04-14T09:14:07.454Z,5.91
2023-04-14T09:15:07.241Z,5.9
2023-04-14T09:16:08.457Z,5.99
2023-04-14T09:17:09.023Z,5.95
2023-04-14T09:18:08.876Z,6.01
2023-04-14T09:19:12.968Z,5.94
2023-04-14T09:20:44.384Z,5.94
2023-04-14T09:22:04.756Z,5.92
2023-04-14T09:23:06.425Z,5.95
2023-04-14T09:24:06.668Z,5.98
2023-04-14T09:25:06.835Z,6.12
2023-04-14T09:26:07.807Z,6.05
2023-04-14T09:27:07.612Z,6.13
2023-04-14T09:28:07.763Z,6.09
2023-04-14T09:29:09.120Z,6.19
2023-04-14T09:30:09.258Z,6.25
2023-04-14T09:31:10.363Z,6.25
2023-04-14T09:32:10.805Z,6.29
2023-04-14T09:33:11.632Z,6.31
2023-04-14T09:34:12.733Z,6.26
2023-04-14T09:35:13.323Z,6.34
2023-04-14T09:36:13.658Z,6.32
2023-04-14T09:37:14.578Z,6.28
2023-04-14T09:38:14.298Z,6.2
2023-04-14T09:39:15.245Z,6.26
2023-04-14T09:40:16.129Z,6.36
2023-04-14T09:41:16.848Z,6.34
2023-04-14T09:42:17.802Z,6.35
2023-04-14T09:43:18.409Z,6.31
2023-04-14T09:44:19.434Z,6.35
2023-04-14T09:45:20.196Z,6.36
2023-04-14T09:46:21.238Z,6.36
2023-04-14T09:47:21.476Z,6.31
2023-04-14T09:48:21.341Z,6.29
2023-04-14T09:49:22.288Z,6.29
2023-04-14T09:50:23.212Z,6.38
2023-04-14T09:51:23.392Z,6.38
2023-04-14T09:52:23.514Z,6.43
2023-04-14T09:53:24.231Z,6.46
2023-04-14T09:54:25.006Z,6.36
2023-04-14T09:55:25.798Z,6.39
2023-04-14T09:56:25.903Z,6.35
2023-04-14T09:57:26.621Z,6.39
2023-04-14T09:58:29.958Z,6.46
2023-04-14T09:59:27.419Z,6.44
2023-04-14T10:00:28.352Z,6.49
2023-04-14T10:01:28.373Z,6.43
2023-04-14T10:02:29.101Z,6.59
2023-04-14T10:03:29.802Z,6.67
2023-04-14T10:04:30.265Z,6.65
2023-04-14T10:05:34.812Z,6.72
2023-04-14T10:07:31.865Z,6.72
2023-04-14T10:08:32.631Z,6.78
2023-04-14T10:09:33.818Z,6.85
2023-04-14T10:10:34.368Z,6.78
2023-04-14T10:11:34.955Z,6.74
2023-04-14T10:12:35.457Z,6.82
2023-04-14T10:13:36.382Z,6.86
2023-04-14T10:14:37.217Z,6.82
2023-04-14T10:15:38.348Z,6.83
2023-04-14T10:16:39.576Z,7.04
2023-04-14T10:17:40.312Z,6.96
2023-04-14T10:18:40.101Z,7.04
2023-04-14T10:19:41.238Z,7.04
2023-04-14T10:20:40.965Z,7.18
2023-04-14T10:21:41.941Z,7.23
2023-04-14T10:22:46.026Z,7.31
2023-04-14T10:24:44.386Z,7.33
2023-04-14T10:25:45.088Z,7.29
2023-04-14T10:26:45.503Z,7.28
2023-04-14T10:27:46.413Z,7.31
2023-04-14T10:28:46.915Z,7.39
2023-04-14T10:29:48.025Z,7.28
2023-04-14T10:30:48.710Z,7.26
2023-04-14T10:31:49.828Z,7.28
2023-04-14T10:32:50.071Z,7.33
2023-04-14T10:33:51.257Z,7.39
2023-04-14T10:34:51.772Z,7.29
2023-04-14T10:35:52.674Z,7.23
2023-04-14T10:36:53.131Z,7.22
2023-04-14T10:37:53.636Z,7.19
2023-04-14T10:38:54.342Z,7.25
2023-04-14T10:39:55.123Z,7.28
2023-04-14T10:40:55.822Z,7.23
2023-04-14T10:41:56.764Z,7.28
2023-04-14T10:42:57.826Z,7.32
2023-04-14T10:43:57.743Z,7.29
2023-04-14T10:44:58.502Z,7.4
2023-04-14T10:45:59.442Z,7.37
2023-04-14T10:46:59.715Z,7.31
2023-04-14T10:48:00.287Z,7.29
2023-04-14T10:49:01.778Z,7.29
2023-04-14T10:50:01.857Z,7.25
2023-04-14T10:51:02.631Z,7.28
2023-04-14T10:52:03.623Z,7.22
2023-04-14T10:53:04.478Z,7.08
2023-04-14T10:54:05.455Z,7.04
2023-04-14T10:55:06.285Z,6.96
2023-04-14T10:56:06.988Z,7.01
2023-04-14T10:57:07.735Z,7.1
2023-04-14T10:58:08.494Z,7.05
2023-04-14T10:59:09.236Z,7.03
2023-04-14T11:00:09.759Z,7.05
2023-04-14T11:01:10.859Z,7.08
2023-04-14T11:02:11.060Z,7.01
2023-04-14T11:03:12.746Z,7.01
2023-04-14T11:04:13.210Z,7.03
2023-04-14T11:05:12.912Z,7.11
2023-04-14T11:06:13.455Z,7.19
2023-04-14T11:07:14.326Z,7.25
2023-04-14T11:08:15.227Z,7.21
2023-04-14T11:09:15.134Z,7.15
2023-04-14T11:10:16.300Z,7.18
2023-04-14T11:11:16.856Z,7.19
2023-04-14T11:12:17.976Z,7.07
2023-04-14T11:13:18.487Z,7.01
2023-04-14T11:14:19.002Z,7.08
2023-04-14T11:15:19.562Z,7.04
2023-04-14T11:16:20.662Z,7.03
2023-04-14T11:17:21.496Z,7.05
2023-04-14T11:18:22.205Z,7.1
2023-04-14T11:19:22.730Z,7.13
2023-04-14T11:20:23.929Z,7.18
2023-04-14T11:21:23.673Z,7.18
2023-04-14T11:22:24.611Z,7.19
2023-04-14T11:23:25.303Z,7.22
2023-04-14T11:24:25.831Z,7.28
2023-04-14T11:25:29.705Z,7.28
2023-04-14T11:28:29.280Z,7.37
2023-04-14T11:29:29.844Z,7.31
2023-04-14T11:30:30.543Z,7.41
2023-04-14T11:31:31.699Z,7.47
2023-04-14T11:32:32.585Z,7.48
2023-04-14T11:33:33.454Z,7.47
2023-04-14T11:34:34.153Z,7.51
2023-04-14T11:35:35.078Z,7.56
2023-04-14T11:36:35.772Z,7.59
2023-04-14T11:37:36.242Z,7.56
2023-04-14T11:38:36.908Z,7.51
2023-04-14T11:39:38.085Z,7.53
2023-04-14T11:40:38.840Z,7.51
2023-04-14T11:41:39.523Z,7.55
2023-04-14T11:42:40.120Z,7.58
2023-04-14T11:43:41.108Z,7.74
2023-04-14T11:44:41.080Z,7.61
2023-04-14T11:45:41.694Z,7.5
2023-04-14T11:46:42.689Z,7.41
2023-04-14T11:47:43.061Z,7.39
2023-04-14T11:48:43.869Z,7.39
2023-04-14T11:49:44.824Z,7.37
2023-04-14T11:50:45.635Z,7.4
2023-04-14T11:51:46.192Z,7.44
2023-04-14T11:52:47.203Z,7.43
2023-04-14T11:53:46.906Z,7.44
2023-04-14T11:54:48.281Z,7.43
2023-04-14T11:55:49.120Z,7.46
2023-04-14T11:56:50.073Z,7.43
2023-04-14T11:57:50.519Z,7.43
2023-04-14T11:58:51.290Z,7.48
2023-04-14T11:59:52.537Z,7.51
2023-04-14T12:00:56.133Z,7.51
2023-04-14T12:01:53.141Z,7.55
2023-04-14T12:02:54.762Z,7.59
2023-04-14T12:03:55.623Z,7.53
2023-04-14T12:04:56.905Z,7.55
2023-04-14T12:05:57.838Z,7.58
2023-04-14T12:06:56.089Z,7.74
2023-04-14T12:07:56.785Z,7.75
2023-04-14T12:08:57.321Z,7.67
2023-04-14T12:09:58.070Z,7.64
2023-04-14T12:10:58.728Z,7.83
2023-04-14T12:11:59.481Z,7.88
2023-04-14T12:13:00.047Z,7.95
2023-04-14T12:14:00.382Z,8.05
2023-04-14T12:15:01.086Z,8.13
2023-04-14T12:16:02.186Z,8.18
2023-04-14T12:17:02.512Z,8.35
2023-04-14T12:18:03.049Z,8.53
2023-04-14T12:19:04.400Z,8.63
2023-04-14T12:20:04.384Z,8.78
2023-04-14T12:21:07.499Z,8.79
2023-04-14T12:22:05.677Z,8.99
2023-04-14T12:23:06.628Z,9.09
2023-04-14T12:24:07.559Z,9.03
2023-04-14T12:25:08.105Z,9.03
2023-04-14T12:26:08.813Z,9.09
2023-04-14T12:27:09.728Z,9.05
2023-04-14T12:28:10.574Z,9
2023-04-14T12:29:11.274Z,9.08
2023-04-14T12:30:11.971Z,9.13
2023-04-14T12:31:12.612Z,9
2023-04-14T12:32:13.410Z,9.09
2023-04-14T12:33:14.255Z,9.02
2023-04-14T12:34:15.022Z,8.87
2023-04-14T12:35:15.774Z,8.99
2023-04-14T12:36:16.261Z,9.11
2023-04-14T12:37:16.383Z,9.18
2023-04-14T12:38:16.877Z,9.27
2023-04-14T12:39:17.393Z,9.27
2023-04-14T12:40:18.509Z,9.31
2023-04-14T12:41:18.438Z,9.34
2023-04-14T12:42:19.144Z,9.31
2023-04-14T12:43:19.885Z,9.13
2023-04-14T12:44:20.636Z,9.11
2023-04-14T12:45:21.599Z,8.82
2023-04-14T12:46:22.033Z,8.79
2023-04-14T12:47:22.881Z,8.77
2023-04-14T12:48:23.782Z,8.84
2023-04-14T12:49:24.265Z,8.75
2023-04-14T12:50:24.833Z,8.79
2023-04-14T12:51:25.765Z,8.74
2023-04-14T12:52:26.324Z,8.72
2023-04-14T12:53:27.129Z,8.6
2023-04-14T12:54:28.044Z,8.59
2023-04-14T12:55:28.993Z,8.56
2023-04-14T12:56:29.815Z,8.54
2023-04-14T12:57:30.341Z,8.38
2023-04-14T12:58:30.993Z,8.49
2023-04-14T12:59:31.931Z,8.53
2023-04-14T13:00:32.116Z,8.56
2023-04-14T13:01:32.428Z,8.54
2023-04-14T13:02:33.058Z,8.56
2023-04-14T13:03:33.168Z,8.59
2023-04-14T13:04:33.577Z,8.52
2023-04-14T13:05:34.108Z,8.61
2023-04-14T13:06:35.004Z,8.53
2023-04-14T13:07:35.546Z,8.52
2023-04-14T13:08:36.546Z,8.53
2023-04-14T13:09:37.052Z,8.42
2023-04-14T13:10:37.973Z,8.53
2023-04-14T13:11:38.146Z,8.46
2023-04-14T13:12:38.634Z,8.54
2023-04-14T13:13:39.169Z,8.6
2023-04-14T13:14:39.895Z,8.57
2023-04-14T13:16:21.420Z,8.53
2023-04-14T13:17:43.341Z,8.44
2023-04-14T13:19:43.649Z,8.36
2023-04-14T13:20:44.560Z,8.45
2023-04-14T13:21:44.481Z,8.35
2023-04-14T13:22:46.272Z,8.17
2023-04-14T13:23:45.740Z,8.14
2023-04-14T13:24:46.629Z,8.01
2023-04-14T13:25:46.942Z,7.96
2023-04-14T13:26:48.070Z,7.8
2023-04-14T13:27:48.771Z,7.69
2023-04-14T13:28:49.449Z,7.77
2023-04-14T13:29:50.275Z,7.62
2023-04-14T13:30:50.356Z,7.62
2023-04-14T13:31:51.267Z,7.64
2023-04-14T13:32:51.342Z,7.62
2023-04-14T13:33:52.304Z,7.77
2023-04-14T13:34:53.196Z,7.7
2023-04-14T13:35:53.532Z,7.8
2023-04-14T13:36:53.924Z,7.88
2023-04-14T13:37:54.429Z,7.85
2023-04-14T13:38:54.736Z,7.85
2023-04-14T13:39:54.997Z,8.03
2023-04-14T13:40:56.117Z,8.13
2023-04-14T13:41:56.643Z,8.11
2023-04-14T13:42:57.574Z,8.23
2023-04-14T13:43:58.339Z,8.28
2023-04-14T13:44:59.243Z,8.38
2023-04-14T13:45:59.879Z,8.49
2023-04-14T13:47:00.632Z,8.5
2023-04-14T13:48:01.215Z,8.72